This is the latest recevied weather packets stored in our database for station/object KY4EF. If no packets are shown the sender has not sent any weather packets the latest 1 day(s).
| Time | Temp. | Humidity | Pressure | Rain* | Wind** | Luminosity | Snow |
|---|---|---|---|---|---|---|---|
| 1777998400 | 25.56° C | 39% | 1014.7 hPa | 0 mm | 0.89 m/s, 289° | 656 W/m² | - |
| 1777998097 | 25.56° C | 37% | 1014.9 hPa | 0 mm | 0 m/s | 625 W/m² | - |
| 1777997794 | 26.11° C | 36% | 1014.8 hPa | 0 mm | 0.45 m/s, 274° | 681 W/m² | - |
| 1777997491 | 24.44° C | 37% | 1014.9 hPa | 0 mm | 0.45 m/s, 299° | 685 W/m² | - |
| 1777997189 | 23.89° C | 39% | 1014.7 hPa | 0 mm | 0.89 m/s, 232° | 671 W/m² | - |
| 1777996886 | 24.44° C | 38% | 1014.9 hPa | 0 mm | 2.24 m/s, 221° | 690 W/m² | - |
| 1777996582 | 25° C | 40% | 1014.7 hPa | 0 mm | 0 m/s | 630 W/m² | - |
| 1777996280 | 25° C | 39% | 1014.7 hPa | 0 mm | 0.89 m/s, 316° | 639 W/m² | - |
| 1777995975 | 24.44° C | 37% | 1014.9 hPa | 0 mm | 0.45 m/s, 250° | 639 W/m² | - |
| 1777995671 | 23.33° C | 41% | 1015 hPa | 0 mm | 0.45 m/s, 250° | 659 W/m² | - |
| 1777995369 | 23.33° C | 41% | 1014.9 hPa | 0 mm | 0.45 m/s, 39° | 649 W/m² | - |
| 1777995066 | 23.33° C | 40% | 1015.1 hPa | 0 mm | 0.45 m/s, 9° | 562 W/m² | - |
| 1777994773 | 23.33° C | 42% | 1015.5 hPa | 0 mm | 0 m/s | 585 W/m² | - |
| 1777994458 | 23.33° C | 41% | 1015 hPa | 0 mm | 0.45 m/s, 298° | 526 W/m² | - |
| 1777994153 | 23.33° C | 41% | 1015 hPa | 0 mm | 0.45 m/s, 232° | 491 W/m² | - |
| 1777993851 | 21.67° C | 44% | 1015.1 hPa | 0 mm | 0.45 m/s, 289° | 481 W/m² | - |
| 1777993547 | 20.56° C | 46% | 1014.7 hPa | 0 mm | 0 m/s | 456 W/m² | - |
| 1777993244 | 19.44° C | 49% | 1015 hPa | 0 mm | 0.45 m/s, 166° | 391 W/m² | - |
| 1777992940 | 20.56° C | 46% | 1015 hPa | 0 mm | 0 m/s | 244 W/m² | - |
| 1777992638 | 22.22° C | 43% | 1015 hPa | 0 mm | 0.45 m/s, 332° | 260 W/m² | - |
| 1777992336 | 21.67° C | 42% | 1014.9 hPa | 0 mm | 0.45 m/s, 345° | 266 W/m² | - |
| 1777992033 | 22.22° C | 45% | 1014.9 hPa | 0 mm | 0.89 m/s, 157° | 382 W/m² | - |
| 1777991731 | 22.22° C | 44% | 1015 hPa | 0 mm | 0.89 m/s, 258° | 492 W/m² | - |
| 1777991428 | 21.67° C | 43% | 1015.1 hPa | 0 mm | 0.45 m/s, 284° | 498 W/m² | - |
| 1777991125 | 20° C | 48% | 1014.8 hPa | 0 mm | 0.45 m/s, 161° | 442 W/m² | - |
* Rain latest hour (hover to see other rain measurements)
** Current wind speed in m/s (hover to see current wind gust speed)